Meteo Giornale » Osservazioni meteo Italia » Ronchi Dei Legionari

ore: 09:50 - Osservazioni Meteo Ronchi Dei Legionari
Lat. 45° 49' N Lon. 13° 29' E Alt. 12 metri s.l.m.

molto_nuvoloso Europe/Rome

26 °C

Molto Nuvoloso

Temp. 24 Ore

17 °C

30 °C

Nord

3.7 Km/h

Dew point 17 °C

Umidità 57 %

Visibilità  10 Km

Il sole sorge alle ore 05:26

Il sole tramonta alle ore 20:57

Data e Ora Cielo e Fenomeni T °C DP °C Um. % Pres. hPa Vis. km Vento km/h
Oggi h: 09:50 molto_nuvoloso Molto Nuvoloso 26 17 57 1013 10 N 3.7
Oggi h: 09:20 molto_nuvoloso Molto Nuvoloso 25 17 61 1013 10 N 5.5
Oggi h: 08:50 nuvoloso Nuvoloso 24 17 64 1013 10 N 3.7
Oggi h: 08:20 molto_nuvoloso Molto Nuvoloso 22 16 68 1013 10 N 5.5
Oggi h: 07:50 nuvoloso Nuvoloso 21 17 77 1012 10 N 7.4
Oggi h: 07:20 nuvoloso Nuvoloso 20 17 82 1012 10 N 3.7
Oggi h: 06:50 nuvoloso Nuvoloso 20 16 77 1012 10 N 3.7
Oggi h: 06:20 sereno Sereno 19 16 82 1012 10 N 5.5
Oggi h: 05:50 poco_nuvoloso Poco Nuvoloso 17 16 93 1013 10 N 5.5
Oggi h: 05:20 sereno Sereno 18 15 82 1013 10 N/NE 7.4
Oggi h: 04:50 sereno Sereno 17 15 88 1013 10 N 5.5
Oggi h: 04:20 sereno Sereno 17 16 93 1013 10 N 3.7
Oggi h: 03:50 sereno Sereno 17 16 93 1013 10 N 3.7
Oggi h: 03:20 sereno Sereno 17 15 88 1013 10 N 5.5
Oggi h: 02:50 sereno Sereno 18 15 82 1014 10 E 7.4
Oggi h: 02:20 sereno Sereno 17 16 93 1014 10 N 3.7
Oggi h: 01:50 sereno Sereno 19 15 77 1014 10 E 7.4
Oggi h: 01:20 sereno Sereno 19 15 77 1014 10 E 7.4
Oggi h: 00:50 sereno Sereno 19 16 82 1014 10 N 5.5
Oggi h: 00:20 sereno Sereno 19 17 88 1014 10 N 3.7
Ieri h: 23:50 sereno Sereno 20 16 77 1013 10 N 5.5
Ieri h: 23:20 sereno Sereno 21 16 73 1013 10 N 5.5
Ieri h: 22:50 sereno Sereno 22 17 73 1013 10 E 7.4
Ieri h: 22:20 sereno Sereno 21 19 88 1013 10 N 1.8
Ieri h: 21:50 coperto_pioggia Pioggia Debole 22 19 83 1013 10 N 1.8
Ieri h: 21:20 coperto_pioggia Pioggia Debole 24 20 78 1012 10 N 3.7
Ieri h: 20:50 sereno Sereno 25 17 61 1012 10 N 3.7
Ieri h: 20:20 sereno Sereno 27 17 54 1013 10 N 5.5
Ieri h: 19:50 sereno Sereno 27 17 54 1013 10 N 5.5
Ieri h: 19:20 sereno Sereno 28 16 48 1012 10 S 7.4
Ieri h: 18:50 sereno Sereno 29 16 45 1012 10 S 9.3
Ieri h: 18:20 sereno Sereno 29 18 51 1012 10 S 9.3
Ieri h: 17:50 sereno Sereno 29 16 45 1013 10 S 9.3
Ieri h: 17:20 sereno Sereno 29 16 45 1013 10 S 7.4
Ieri h: 16:50 sereno Sereno 30 16 42 1013 10 S/SO 9.3
Ieri h: 16:20 sereno Sereno 30 16 42 1013 10 SO 13
Ieri h: 15:50 sereno Sereno 30 16 42 1014 10 O/SO 11.1
Ieri h: 15:20 sereno Sereno 30 17 45 1014 10 O/SO 11.1
Ieri h: 13:50 sereno Sereno 30 16 42 1014 10 O 11.1
Ieri h: 13:20 sereno Sereno 29 18 51 1015 10 SO 13
Ieri h: 12:50 sereno Sereno 29 18 51 1015 10 N 7.4
Ieri h: 12:20 sereno Sereno 29 15 42 1015 10 N 9.3
Ieri h: 11:50 sereno Sereno 29 17 48 1015 10 N 5.5
Ieri h: 11:20 sereno Sereno 28 17 51 1015 10 N 3.7
Ieri h: 10:50 sereno Sereno 28 17 51 1015 10 N 3.7